Time;durP1;ratioP1;P1;durP2;ratioP2;P2;SDS_P1;SDS_P2;PMS_P1;PMS_P2;Temp;Humidity;BMP_temperature;BMP_pressure;BME280_temperature;BME280_humidity;BME280_pressure;Samples;Min_cycle;Max_cycle;Signal;HPM_P1;HPM_P2
2023/01/04 00:00:35;;;;;;;1.98;1.42;;;;;;;;;;5085345;28;20581;-82
2023/01/04 00:03:00;;;;;;;2.58;1.85;;;;;;;;;;5083095;28;20490;-82
2023/01/04 00:05:25;;;;;;;3.58;2.28;;;;;;;;;;5099128;28;20043;-81
2023/01/04 00:07:51;;;;;;;2.55;1.83;;;;;;;;;;5099417;28;20110;-81
2023/01/04 00:10:16;;;;;;;3.38;1.88;;;;;;;;;;5097080;28;20698;-83
2023/01/04 00:12:42;;;;;;;2.83;2.25;;;;;;;;;;5100401;28;20030;-85
2023/01/04 00:15:08;;;;;;;3.13;2.22;;;;;;;;;;5099726;28;20028;-83
2023/01/04 00:17:33;;;;;;;5.07;2.67;;;;;;;;;;5105812;28;20519;-82
2023/01/04 00:19:58;;;;;;;1.83;1.60;;;;;;;;;;5102405;28;20102;-82
2023/01/04 00:22:24;;;;;;;4.13;2.33;;;;;;;;;;5080392;28;20024;-82
2023/01/04 00:24:49;;;;;;;3.00;2.30;;;;;;;;;;5082331;28;20027;-82
2023/01/04 00:27:15;;;;;;;2.67;2.05;;;;;;;;;;5101117;28;20104;-81
2023/01/04 00:29:40;;;;;;;3.33;2.58;;;;;;;;;;5084854;28;20074;-83
2023/01/04 00:32:05;;;;;;;2.72;1.63;;;;;;;;;;5100471;28;20019;-81
2023/01/04 00:34:31;;;;;;;2.83;2.25;;;;;;;;;;5102963;28;20023;-83
2023/01/04 00:36:56;;;;;;;1.92;1.60;;;;;;;;;;5107416;28;20023;-83
2023/01/04 00:39:22;;;;;;;1.63;1.50;;;;;;;;;;5117312;27;20087;-85
2023/01/04 00:41:49;;;;;;;2.35;2.08;;;;;;;;;;5106972;28;20066;-84
2023/01/04 00:44:15;;;;;;;5.57;2.20;;;;;;;;;;5093604;28;20027;-84
2023/01/04 00:46:42;;;;;;;3.20;1.85;;;;;;;;;;5099925;28;20360;-83
2023/01/04 00:49:09;;;;;;;3.03;2.40;;;;;;;;;;5085451;28;20024;-85
2023/01/04 00:51:38;;;;;;;5.18;2.67;;;;;;;;;;5099834;28;20390;-85
2023/01/04 00:54:05;;;;;;;3.03;2.42;;;;;;;;;;5105129;28;20052;-85
2023/01/04 00:56:32;;;;;;;4.55;2.72;;;;;;;;;;5100179;28;20077;-81
2023/01/04 00:58:59;;;;;;;4.13;2.45;;;;;;;;;;5103307;28;20038;-83
2023/01/04 01:01:26;;;;;;;3.80;2.05;;;;;;;;;;5098082;28;20040;-83
2023/01/04 01:03:57;;;;;;;3.40;1.95;;;;;;;;;;5102510;28;20082;-81
2023/01/04 01:06:24;;;;;;;3.33;2.38;;;;;;;;;;5104243;28;20028;-82
2023/01/04 01:08:50;;;;;;;3.08;2.25;;;;;;;;;;5078218;28;20033;-84
2023/01/04 01:11:16;;;;;;;4.65;2.97;;;;;;;;;;5107488;28;20022;-81
2023/01/04 01:13:41;;;;;;;6.68;4.50;;;;;;;;;;5106480;28;20110;-82
2023/01/04 01:16:10;;;;;;;1.65;1.45;;;;;;;;;;5106511;28;20061;-82
2023/01/04 01:18:37;;;;;;;5.05;2.05;;;;;;;;;;5105993;28;20032;-82
2023/01/04 01:21:05;;;;;;;3.80;3.08;;;;;;;;;;5086267;28;20077;-83
2023/01/04 01:23:30;;;;;;;4.47;2.97;;;;;;;;;;5099961;28;20042;-83
2023/01/04 01:26:03;;;;;;;3.22;2.55;;;;;;;;;;5085304;28;20024;-83
2023/01/04 01:28:29;;;;;;;3.67;2.08;;;;;;;;;;5112715;28;20864;-84
2023/01/04 01:30:54;;;;;;;3.28;1.80;;;;;;;;;;5104937;28;20024;-86
2023/01/04 01:33:20;;;;;;;4.85;3.03;;;;;;;;;;5103107;28;20028;-83
2023/01/04 01:35:45;;;;;;;3.58;2.50;;;;;;;;;;5100458;28;20023;-82
2023/01/04 01:38:11;;;;;;;5.13;3.42;;;;;;;;;;5100666;28;20513;-84
2023/01/04 01:40:41;;;;;;;6.18;3.20;;;;;;;;;;5100688;28;20043;-82
2023/01/04 01:43:18;;;;;;;4.82;2.38;;;;;;;;;;5103792;28;20079;-85
2023/01/04 01:45:45;;;;;;;5.25;2.85;;;;;;;;;;5110190;28;20509;-85
2023/01/04 01:48:17;;;;;;;7.63;3.92;;;;;;;;;;5102976;28;20394;-82
2023/01/04 01:51:03;;;;;;;5.03;2.47;;;;;;;;;;5102538;28;20089;-83
2023/01/04 01:53:33;;;;;;;4.10;2.80;;;;;;;;;;5105660;28;20054;-85
2023/01/04 01:55:59;;;;;;;4.53;1.98;;;;;;;;;;5085650;28;20039;-85
2023/01/04 01:58:33;;;;;;;2.97;2.20;;;;;;;;;;5090424;28;20115;-84
2023/01/04 02:00:58;;;;;;;5.30;2.42;;;;;;;;;;5084762;28;20471;-85
2023/01/04 02:03:32;;;;;;;2.75;2.13;;;;;;;;;;5087355;28;20028;-82
2023/01/04 02:06:00;;;;;;;3.45;2.55;;;;;;;;;;5089469;28;20028;-83
2023/01/04 02:08:26;;;;;;;5.85;2.45;;;;;;;;;;5084099;28;20031;-83
2023/01/04 02:10:51;;;;;;;2.97;1.90;;;;;;;;;;5088500;28;20093;-83
2023/01/04 02:13:22;;;;;;;3.00;1.83;;;;;;;;;;5087192;28;20029;-82
2023/01/04 02:16:08;;;;;;;2.20;1.88;;;;;;;;;;5102791;28;20048;-86
2023/01/04 02:18:40;;;;;;;3.25;2.40;;;;;;;;;;5086445;28;20024;-83
2023/01/04 02:21:14;;;;;;;4.43;2.72;;;;;;;;;;5111375;28;20032;-85
2023/01/04 02:24:13;;;;;;;5.10;3.20;;;;;;;;;;5103167;28;20032;-82
2023/01/04 02:26:57;;;;;;;2.80;1.88;;;;;;;;;;5083881;28;20028;-84
2023/01/04 02:29:41;;;;;;;1.98;1.27;;;;;;;;;;5106080;28;20442;-85
2023/01/04 02:32:13;;;;;;;3.53;2.63;;;;;;;;;;5099018;28;20534;-83
2023/01/04 02:34:44;;;;;;;4.50;2.80;;;;;;;;;;5089656;28;20494;-84
2023/01/04 02:37:10;;;;;;;3.95;2.92;;;;;;;;;;5087865;28;20089;-83
2023/01/04 02:39:50;;;;;;;4.25;2.85;;;;;;;;;;5104577;28;20467;-85
2023/01/04 02:45:29;;;;;;;2.78;1.65;;;;;;;;;;5102710;28;20039;-85
2023/01/04 02:50:56;;;;;;;2.33;1.63;;;;;;;;;;5102324;28;20042;-82
2023/01/04 02:53:30;;;;;;;2.72;1.75;;;;;;;;;;5101421;28;20042;-86
2023/01/04 02:55:59;;;;;;;2.85;2.20;;;;;;;;;;5104933;28;20059;-85
2023/01/04 02:58:44;;;;;;;2.35;1.85;;;;;;;;;;5086798;28;20031;-83
2023/01/04 03:07:38;;;;;;;3.35;1.88;;;;;;;;;;5099660;28;20419;-86
2023/01/04 03:10:14;;;;;;;2.92;1.92;;;;;;;;;;5087020;28;20038;-84
2023/01/04 03:12:50;;;;;;;2.35;2.05;;;;;;;;;;5089198;28;20028;-86
2023/01/04 03:15:24;;;;;;;2.97;1.95;;;;;;;;;;5086395;28;20032;-83
2023/01/04 03:17:56;;;;;;;2.90;2.42;;;;;;;;;;5100249;28;20052;-85
2023/01/04 03:20:24;;;;;;;5.32;3.85;;;;;;;;;;5103966;28;20469;-85
2023/01/04 03:37:12;;;;;;;5.30;3.15;;;;;;;;;;5106909;28;20066;-87
2023/01/04 03:49:13;;;;;;;3.55;2.65;;;;;;;;;;5102253;28;20107;-86
2023/01/04 03:51:39;;;;;;;6.22;3.90;;;;;;;;;;5082849;28;20027;-86
2023/01/04 03:54:13;;;;;;;3.72;2.20;;;;;;;;;;5082785;28;20475;-87
2023/01/04 03:56:41;;;;;;;2.60;2.22;;;;;;;;;;5104023;28;20024;-88
2023/01/04 03:59:08;;;;;;;4.22;3.13;;;;;;;;;;5101624;28;20077;-85
2023/01/04 04:01:35;;;;;;;4.20;2.17;;;;;;;;;;5084947;28;20020;-85
2023/01/04 04:09:29;;;;;;;5.55;3.28;;;;;;;;;;5099965;28;20087;-84
2023/01/04 04:11:55;;;;;;;4.97;2.78;;;;;;;;;;5084599;28;20031;-86
2023/01/04 04:14:20;;;;;;;5.18;3.33;;;;;;;;;;5083343;28;20157;-87
2023/01/04 04:16:46;;;;;;;8.05;3.42;;;;;;;;;;5105356;28;20030;-86
2023/01/04 04:19:11;;;;;;;4.15;2.55;;;;;;;;;;5119861;27;20483;-83
2023/01/04 04:21:37;;;;;;;8.98;3.20;;;;;;;;;;5100118;28;20073;-85
2023/01/04 04:24:02;;;;;;;6.80;3.70;;;;;;;;;;5081787;28;20068;-85
2023/01/04 04:26:28;;;;;;;7.63;4.13;;;;;;;;;;5098555;28;20446;-85
2023/01/04 04:28:53;;;;;;;3.90;3.05;;;;;;;;;;5081682;28;20078;-82
2023/01/04 04:31:19;;;;;;;4.82;2.40;;;;;;;;;;5103704;28;20016;-85
2023/01/04 04:33:44;;;;;;;4.13;2.65;;;;;;;;;;5090366;28;20027;-87
2023/01/04 04:36:10;;;;;;;4.65;3.95;;;;;;;;;;5098743;28;20020;-85
2023/01/04 04:38:36;;;;;;;4.18;2.65;;;;;;;;;;5090177;28;20023;-87
2023/01/04 04:43:57;;;;;;;5.00;3.08;;;;;;;;;;5098359;28;20038;-86
2023/01/04 04:46:23;;;;;;;5.95;4.63;;;;;;;;;;5083707;28;20023;-87
2023/01/04 04:48:48;;;;;;;6.75;3.63;;;;;;;;;;5086863;28;20062;-87
2023/01/04 04:51:14;;;;;;;5.35;3.78;;;;;;;;;;5102864;28;20011;-86
2023/01/04 04:53:39;;;;;;;5.32;3.03;;;;;;;;;;5099585;28;20032;-87
2023/01/04 04:56:06;;;;;;;5.75;3.50;;;;;;;;;;5101264;28;20031;-87
2023/01/04 04:58:32;;;;;;;5.70;3.67;;;;;;;;;;5099650;28;20019;-86
2023/01/04 05:00:57;;;;;;;4.68;3.28;;;;;;;;;;5116211;28;20048;-86
2023/01/04 05:03:22;;;;;;;6.72;3.38;;;;;;;;;;5082710;28;20019;-87
2023/01/04 05:05:48;;;;;;;6.50;4.03;;;;;;;;;;5108306;28;20032;-86
2023/01/04 05:08:13;;;;;;;8.32;5.28;;;;;;;;;;5083570;28;20111;-87
2023/01/04 05:10:39;;;;;;;7.28;4.25;;;;;;;;;;5083718;28;20024;-86
2023/01/04 05:13:07;;;;;;;5.03;3.17;;;;;;;;;;5083705;28;20051;-85
2023/01/04 05:15:41;;;;;;;6.18;3.88;;;;;;;;;;5084336;28;20026;-88
2023/01/04 05:18:08;;;;;;;6.55;3.78;;;;;;;;;;5085602;28;20027;-87
2023/01/04 05:20:34;;;;;;;7.80;5.07;;;;;;;;;;5093702;28;20106;-87
2023/01/04 05:22:59;;;;;;;6.50;3.50;;;;;;;;;;5088884;28;20068;-87
2023/01/04 05:25:25;;;;;;;8.27;4.85;;;;;;;;;;5088996;28;20031;-87
2023/01/04 05:27:51;;;;;;;7.05;4.32;;;;;;;;;;5114018;27;20044;-86
2023/01/04 05:33:04;;;;;;;5.65;4.55;;;;;;;;;;5101638;28;20396;-86
2023/01/04 05:35:30;;;;;;;7.03;3.83;;;;;;;;;;5108360;28;20103;-88
2023/01/04 05:37:56;;;;;;;5.55;3.80;;;;;;;;;;5089990;28;20058;-86
2023/01/04 05:40:22;;;;;;;5.35;3.85;;;;;;;;;;5101555;28;20468;-84
2023/01/04 05:42:48;;;;;;;5.18;4.10;;;;;;;;;;5104585;28;20047;-84
2023/01/04 05:45:15;;;;;;;5.43;4.10;;;;;;;;;;5103706;28;20086;-84
2023/01/04 05:47:40;;;;;;;3.97;2.22;;;;;;;;;;5082336;28;20027;-84
2023/01/04 05:50:06;;;;;;;6.65;3.95;;;;;;;;;;5104861;28;20474;-84
2023/01/04 05:52:32;;;;;;;8.68;5.35;;;;;;;;;;5103448;28;20476;-86
2023/01/04 05:54:58;;;;;;;7.53;5.20;;;;;;;;;;5117790;27;20024;-84
2023/01/04 05:57:23;;;;;;;3.55;2.85;;;;;;;;;;5069578;28;20035;-83
2023/01/04 05:59:49;;;;;;;4.85;2.78;;;;;;;;;;5105579;28;20486;-84
2023/01/04 06:02:17;;;;;;;2.88;2.00;;;;;;;;;;5081927;28;20115;-84
2023/01/04 06:04:43;;;;;;;4.00;2.47;;;;;;;;;;5079949;28;20023;-86
2023/01/04 06:07:08;;;;;;;3.08;2.25;;;;;;;;;;5102288;28;20386;-86
2023/01/04 06:09:34;;;;;;;6.05;3.00;;;;;;;;;;5080726;28;20027;-83
2023/01/04 06:11:59;;;;;;;3.20;2.33;;;;;;;;;;5098276;28;20479;-84
2023/01/04 06:14:24;;;;;;;4.55;2.63;;;;;;;;;;5096615;28;20054;-83
2023/01/04 06:16:50;;;;;;;3.78;2.38;;;;;;;;;;5090982;28;20055;-81
2023/01/04 06:19:15;;;;;;;6.78;3.20;;;;;;;;;;5077503;28;20026;-83
2023/01/04 06:21:41;;;;;;;3.47;2.35;;;;;;;;;;5085563;28;20395;-82
2023/01/04 06:24:06;;;;;;;4.30;2.80;;;;;;;;;;5081438;28;20042;-83
2023/01/04 06:26:31;;;;;;;2.35;1.55;;;;;;;;;;5079978;28;20028;-84
2023/01/04 06:28:57;;;;;;;3.00;2.03;;;;;;;;;;5102698;28;20079;-84
2023/01/04 06:31:22;;;;;;;2.28;1.88;;;;;;;;;;5100580;28;20069;-82
2023/01/04 06:33:48;;;;;;;2.42;1.65;;;;;;;;;;5098848;28;20089;-82
2023/01/04 06:36:13;;;;;;;3.83;2.15;;;;;;;;;;5080128;28;20032;-83
2023/01/04 06:38:38;;;;;;;3.58;1.50;;;;;;;;;;5096119;28;20024;-85
2023/01/04 06:41:04;;;;;;;1.95;1.15;;;;;;;;;;5104814;28;20115;-81
2023/01/04 06:43:29;;;;;;;3.35;1.80;;;;;;;;;;5083105;28;20015;-84
2023/01/04 06:45:55;;;;;;;1.60;1.17;;;;;;;;;;5084909;28;20051;-82
2023/01/04 06:48:20;;;;;;;3.72;2.45;;;;;;;;;;5099377;28;20073;-87
2023/01/04 06:50:46;;;;;;;1.98;1.55;;;;;;;;;;5099002;28;20453;-85
2023/01/04 06:53:11;;;;;;;1.60;1.25;;;;;;;;;;5083929;28;20474;-85
2023/01/04 06:55:37;;;;;;;2.70;1.55;;;;;;;;;;5099741;28;20056;-82
2023/01/04 06:58:02;;;;;;;3.83;2.50;;;;;;;;;;5085406;28;20028;-85
2023/01/04 07:00:28;;;;;;;6.13;2.17;;;;;;;;;;5102438;28;20077;-87
2023/01/04 07:02:53;;;;;;;3.90;1.85;;;;;;;;;;5101246;28;20077;-85
2023/01/04 07:05:19;;;;;;;5.07;2.70;;;;;;;;;;5100563;28;20023;-83
2023/01/04 07:07:44;;;;;;;2.83;1.52;;;;;;;;;;5099877;28;20467;-86
2023/01/04 07:10:09;;;;;;;2.15;1.52;;;;;;;;;;5100997;28;20027;-86
2023/01/04 07:12:35;;;;;;;6.05;2.55;;;;;;;;;;5096965;28;20059;-84
2023/01/04 07:15:01;;;;;;;2.20;2.00;;;;;;;;;;5099084;28;20034;-82
2023/01/04 07:17:26;;;;;;;3.03;1.67;;;;;;;;;;5106629;28;20392;-86
2023/01/04 07:19:52;;;;;;;4.50;2.05;;;;;;;;;;5099304;28;20767;-82
2023/01/04 07:22:17;;;;;;;3.40;1.52;;;;;;;;;;5100818;28;20386;-84
2023/01/04 07:24:43;;;;;;;7.32;2.15;;;;;;;;;;5082179;28;20039;-84
2023/01/04 07:27:11;;;;;;;4.10;2.92;;;;;;;;;;5100860;28;20027;-85
2023/01/04 07:29:42;;;;;;;6.07;2.65;;;;;;;;;;5094580;28;20487;-83
2023/01/04 07:32:09;;;;;;;1.67;1.48;;;;;;;;;;5084492;28;20036;-83
2023/01/04 07:34:36;;;;;;;2.15;1.50;;;;;;;;;;5078193;28;20150;-83
2023/01/04 07:37:02;;;;;;;3.75;2.10;;;;;;;;;;5097617;28;20032;-84
2023/01/04 07:39:28;;;;;;;2.85;1.73;;;;;;;;;;5078751;28;20043;-84
2023/01/04 07:41:53;;;;;;;3.88;2.85;;;;;;;;;;5102496;28;20024;-85
2023/01/04 07:44:20;;;;;;;3.65;2.90;;;;;;;;;;5085740;28;20032;-85
2023/01/04 07:46:46;;;;;;;3.33;2.55;;;;;;;;;;5100743;28;20108;-85
2023/01/04 07:49:14;;;;;;;4.13;2.30;;;;;;;;;;5078985;28;20762;-84
2023/01/04 07:51:40;;;;;;;1.90;1.60;;;;;;;;;;5099044;28;20102;-85
2023/01/04 07:54:05;;;;;;;4.75;2.90;;;;;;;;;;5082036;28;20131;-84
2023/01/04 07:56:31;;;;;;;5.45;3.13;;;;;;;;;;5080106;28;20390;-84
2023/01/04 07:58:58;;;;;;;4.60;2.78;;;;;;;;;;5079291;28;20032;-83
2023/01/04 08:01:25;;;;;;;4.63;2.35;;;;;;;;;;5081884;28;20499;-86
2023/01/04 08:03:51;;;;;;;5.43;2.97;;;;;;;;;;5080582;28;20024;-82
2023/01/04 08:06:17;;;;;;;3.35;2.20;;;;;;;;;;5098813;28;20024;-83
2023/01/04 08:08:43;;;;;;;9.68;3.13;;;;;;;;;;5080429;28;20422;-85
2023/01/04 08:11:12;;;;;;;4.05;2.45;;;;;;;;;;5084204;28;20089;-87
2023/01/04 08:13:38;;;;;;;4.88;3.40;;;;;;;;;;5095630;28;20750;-86
2023/01/04 08:16:03;;;;;;;3.47;2.65;;;;;;;;;;5090611;28;20088;-85
2023/01/04 08:18:29;;;;;;;3.80;2.55;;;;;;;;;;5080905;28;20495;-86
2023/01/04 08:21:05;;;;;;;3.85;2.25;;;;;;;;;;5093260;28;20085;-85
2023/01/04 08:23:31;;;;;;;5.60;3.10;;;;;;;;;;5074360;28;20524;-83
2023/01/04 08:26:10;;;;;;;4.38;3.15;;;;;;;;;;5077988;28;20051;-86
2023/01/04 08:28:35;;;;;;;4.80;2.53;;;;;;;;;;5078655;28;20048;-85
2023/01/04 08:31:16;;;;;;;4.63;3.17;;;;;;;;;;5084481;28;20046;-82
2023/01/04 08:33:42;;;;;;;2.33;1.85;;;;;;;;;;5097887;28;20114;-84
2023/01/04 08:36:11;;;;;;;4.10;2.95;;;;;;;;;;5098578;28;20103;-84
2023/01/04 08:38:37;;;;;;;4.43;2.67;;;;;;;;;;5097888;28;20051;-83
2023/01/04 08:41:03;;;;;;;7.45;3.05;;;;;;;;;;5075219;28;20047;-85
2023/01/04 08:43:28;;;;;;;4.22;2.92;;;;;;;;;;5075987;28;20023;-84
2023/01/04 08:45:53;;;;;;;3.78;2.30;;;;;;;;;;5093615;28;20076;-84
2023/01/04 08:48:22;;;;;;;4.38;2.72;;;;;;;;;;5091875;28;20032;-86
2023/01/04 08:50:47;;;;;;;4.07;3.17;;;;;;;;;;5088743;28;20024;-86
2023/01/04 08:53:13;;;;;;;2.90;2.08;;;;;;;;;;5091317;28;20035;-85
2023/01/04 08:55:38;;;;;;;2.30;1.88;;;;;;;;;;5093279;28;20058;-86
2023/01/04 08:58:06;;;;;;;5.15;2.83;;;;;;;;;;5081022;28;20111;-87
2023/01/04 09:00:31;;;;;;;4.28;2.90;;;;;;;;;;5079408;28;20521;-86
2023/01/04 09:02:57;;;;;;;5.35;2.80;;;;;;;;;;5082898;28;20106;-86
2023/01/04 09:05:24;;;;;;;8.55;3.13;;;;;;;;;;5079167;28;20024;-86
2023/01/04 09:07:50;;;;;;;6.00;2.75;;;;;;;;;;5103223;28;20552;-83
2023/01/04 09:10:16;;;;;;;4.68;2.72;;;;;;;;;;5099026;28;20048;-86
2023/01/04 09:12:41;;;;;;;6.55;3.20;;;;;;;;;;5104755;28;20035;-85
2023/01/04 09:15:08;;;;;;;9.18;3.58;;;;;;;;;;5096784;28;20031;-84
2023/01/04 09:17:33;;;;;;;4.38;2.80;;;;;;;;;;5099844;28;20439;-83
2023/01/04 09:19:59;;;;;;;5.22;2.88;;;;;;;;;;5084865;28;20109;-85
2023/01/04 09:22:24;;;;;;;6.13;3.45;;;;;;;;;;5102272;28;20048;-84
2023/01/04 09:24:50;;;;;;;2.33;2.13;;;;;;;;;;5084684;28;20024;-86
2023/01/04 09:27:15;;;;;;;4.20;2.92;;;;;;;;;;5079625;28;20058;-86
2023/01/04 09:29:40;;;;;;;6.25;3.03;;;;;;;;;;5102267;28;20039;-87
2023/01/04 09:32:06;;;;;;;2.92;2.17;;;;;;;;;;5100734;28;20019;-85
2023/01/04 09:34:31;;;;;;;5.28;3.42;;;;;;;;;;5099896;28;20445;-83
2023/01/04 09:36:57;;;;;;;5.18;3.95;;;;;;;;;;5101903;28;20023;-85
2023/01/04 09:39:25;;;;;;;5.50;3.40;;;;;;;;;;5099939;28;20036;-85
2023/01/04 09:41:55;;;;;;;4.35;2.78;;;;;;;;;;5079361;28;20024;-84
2023/01/04 09:44:33;;;;;;;4.28;2.97;;;;;;;;;;5105160;28;20023;-86
2023/01/04 09:47:10;;;;;;;4.38;2.72;;;;;;;;;;5114945;28;20032;-82
2023/01/04 09:49:53;;;;;;;6.82;3.83;;;;;;;;;;5094551;28;20021;-85
2023/01/04 09:52:22;;;;;;;4.28;2.83;;;;;;;;;;5100003;28;20024;-85
2023/01/04 09:54:59;;;;;;;4.65;2.60;;;;;;;;;;5095987;28;20051;-83
2023/01/04 09:57:29;;;;;;;7.05;2.95;;;;;;;;;;5095619;28;20085;-85
2023/01/04 10:00:01;;;;;;;4.35;2.97;;;;;;;;;;5101145;28;20773;-85
2023/01/04 10:02:40;;;;;;;4.57;3.15;;;;;;;;;;5085887;28;20427;-82
2023/01/04 10:05:10;;;;;;;4.90;3.37;;;;;;;;;;5092444;28;20032;-81
2023/01/04 10:07:36;;;;;;;4.78;2.35;;;;;;;;;;5095430;28;20367;-80
2023/01/04 10:10:11;;;;;;;4.32;2.95;;;;;;;;;;5102431;28;20039;-86
2023/01/04 10:13:14;;;;;;;5.43;3.25;;;;;;;;;;5096318;28;20024;-84
2023/01/04 10:15:48;;;;;;;4.28;2.53;;;;;;;;;;5096246;28;20027;-86
2023/01/04 10:18:44;;;;;;;3.05;2.45;;;;;;;;;;5116908;27;20085;-87
2023/01/04 10:21:25;;;;;;;4.03;2.72;;;;;;;;;;5084616;28;20032;-83
2023/01/04 10:23:54;;;;;;;2.60;1.77;;;;;;;;;;5098669;28;20023;-85
2023/01/04 10:26:44;;;;;;;4.85;2.78;;;;;;;;;;5100725;28;20098;-86
2023/01/04 10:29:23;;;;;;;;;;;;;;;;;;5065296;28;20039;-83
2023/01/04 10:31:54;;;;;;;1.83;1.40;;;;;;;;;;5074597;28;19919;-83
2023/01/04 10:34:29;;;;;;;5.88;2.85;;;;;;;;;;5100653;28;20031;-85
2023/01/04 10:37:02;;;;;;;4.32;2.72;;;;;;;;;;5103397;28;20387;-84
2023/01/04 10:39:31;;;;;;;3.33;2.20;;;;;;;;;;5102034;28;20024;-86
2023/01/04 10:42:03;;;;;;;3.20;2.60;;;;;;;;;;5086375;28;20027;-84
2023/01/04 10:44:36;;;;;;;2.67;2.13;;;;;;;;;;5089958;28;20027;-85
2023/01/04 10:47:11;;;;;;;6.43;4.55;;;;;;;;;;5096693;28;20032;-85
2023/01/04 10:49:52;;;;;;;5.53;2.88;;;;;;;;;;5099513;28;20023;-85
2023/01/04 10:52:50;;;;;;;3.08;2.17;;;;;;;;;;5082227;28;20036;-81
2023/01/04 10:55:37;;;;;;;5.40;3.38;;;;;;;;;;5069485;28;20082;-87
2023/01/04 10:58:36;;;;;;;2.33;1.92;;;;;;;;;;5098255;28;20456;-86
2023/01/04 11:01:11;;;;;;;3.40;2.42;;;;;;;;;;5098336;28;20020;-86
2023/01/04 11:03:41;;;;;;;4.03;2.38;;;;;;;;;;5101079;28;20066;-86
2023/01/04 11:06:17;;;;;;;3.65;2.85;;;;;;;;;;5101115;28;20039;-84
2023/01/04 11:08:51;;;;;;;3.67;2.05;;;;;;;;;;5106134;28;20566;-84
2023/01/04 11:11:25;;;;;;;3.63;2.60;;;;;;;;;;5081343;28;20020;-83
2023/01/04 11:13:51;;;;;;;5.00;2.45;;;;;;;;;;5101639;28;20024;-83
2023/01/04 11:16:17;;;;;;;3.53;2.90;;;;;;;;;;5094569;28;20024;-87
2023/01/04 11:18:44;;;;;;;5.78;3.35;;;;;;;;;;5105585;28;20085;-85
2023/01/04 11:21:13;;;;;;;4.88;2.90;;;;;;;;;;5084710;28;20035;-86
2023/01/04 11:23:39;;;;;;;4.70;2.90;;;;;;;;;;5102484;28;20027;-86
2023/01/04 11:26:14;;;;;;;7.60;3.83;;;;;;;;;;5097300;28;20379;-86
2023/01/04 11:29:18;;;;;;;5.30;3.03;;;;;;;;;;5078976;28;20040;-85
2023/01/04 11:31:52;;;;;;;5.35;2.95;;;;;;;;;;5029358;28;20066;-86
2023/01/04 11:34:17;;;;;;;4.95;3.30;;;;;;;;;;5074138;28;20043;-87
2023/01/04 11:36:45;;;;;;;3.53;2.65;;;;;;;;;;5100673;28;20024;-87
2023/01/04 11:39:22;;;;;;;5.95;3.33;;;;;;;;;;5087842;28;20027;-86
2023/01/04 11:41:58;;;;;;;7.55;3.67;;;;;;;;;;5084353;28;20478;-87
2023/01/04 11:44:24;;;;;;;7.70;4.85;;;;;;;;;;5100781;28;20035;-86
2023/01/04 11:47:20;;;;;;;2.75;2.25;;;;;;;;;;5099141;28;20024;-86
2023/01/04 11:49:46;;;;;;;4.03;2.33;;;;;;;;;;5082257;28;20089;-86
2023/01/04 11:52:33;;;;;;;5.07;2.55;;;;;;;;;;5079629;28;20036;-87
2023/01/04 11:55:25;;;;;;;5.00;2.88;;;;;;;;;;5094735;28;20019;-86
2023/01/04 11:58:11;;;;;;;4.57;2.42;;;;;;;;;;5098729;28;20511;-86
2023/01/04 12:00:36;;;;;;;2.70;2.05;;;;;;;;;;5096178;28;20483;-87
2023/01/04 12:03:12;;;;;;;4.03;2.53;;;;;;;;;;5082599;28;20038;-87
2023/01/04 12:05:37;;;;;;;3.47;2.67;;;;;;;;;;5102916;28;20418;-86
2023/01/04 12:08:03;;;;;;;13.10;3.00;;;;;;;;;;5076486;28;20031;-84
2023/01/04 12:10:29;;;;;;;4.50;2.20;;;;;;;;;;5079257;28;20024;-86
2023/01/04 12:12:58;;;;;;;2.92;2.47;;;;;;;;;;5097395;28;20028;-85
2023/01/04 12:15:33;;;;;;;6.57;3.72;;;;;;;;;;5096413;28;20616;-87
2023/01/04 12:18:06;;;;;;;3.83;2.63;;;;;;;;;;5084024;28;20035;-84
2023/01/04 12:20:31;;;;;;;3.45;2.45;;;;;;;;;;5107707;28;20035;-86
2023/01/04 12:22:57;;;;;;;5.90;3.53;;;;;;;;;;5077446;28;20039;-86
2023/01/04 12:25:22;;;;;;;4.07;2.67;;;;;;;;;;5100580;28;20034;-86
2023/01/04 12:27:50;;;;;;;4.95;2.58;;;;;;;;;;5075420;28;20048;-87
2023/01/04 12:30:34;;;;;;;4.18;2.80;;;;;;;;;;5077316;28;20110;-87
2023/01/04 12:33:31;;;;;;;3.47;2.42;;;;;;;;;;5079596;28;20099;-86
2023/01/04 12:36:02;;;;;;;2.95;1.90;;;;;;;;;;5080468;28;20021;-85
2023/01/04 12:38:56;;;;;;;6.07;3.05;;;;;;;;;;5079431;28;20021;-86
2023/01/04 12:41:34;;;;;;;5.65;3.13;;;;;;;;;;5075652;28;20119;-87
2023/01/04 12:44:35;;;;;;;3.28;2.67;;;;;;;;;;5075000;28;20028;-85
2023/01/04 12:49:55;;;;;;;5.43;3.20;;;;;;;;;;5081479;28;20094;-85
2023/01/04 12:52:20;;;;;;;5.32;3.60;;;;;;;;;;5080766;28;20395;-84
2023/01/04 12:54:56;;;;;;;7.95;4.65;;;;;;;;;;5080898;28;20012;-85
2023/01/04 12:57:34;;;;;;;4.95;3.60;;;;;;;;;;5075271;28;20521;-86
2023/01/04 13:00:08;;;;;;;4.05;2.70;;;;;;;;;;5081424;28;20032;-86
2023/01/04 13:02:42;;;;;;;5.70;3.05;;;;;;;;;;5078547;28;20032;-86
2023/01/04 13:05:17;;;;;;;5.00;2.65;;;;;;;;;;5075832;28;20028;-86
2023/01/04 13:07:57;;;;;;;6.22;3.00;;;;;;;;;;5077771;28;20835;-85
2023/01/04 13:10:45;;;;;;;3.70;2.55;;;;;;;;;;5077859;28;20034;-85
2023/01/04 13:13:42;;;;;;;6.05;4.28;;;;;;;;;;5077245;28;20035;-84
2023/01/04 13:16:16;;;;;;;5.60;3.60;;;;;;;;;;5076012;28;20729;-87
2023/01/04 13:18:57;;;;;;;5.45;3.67;;;;;;;;;;5075995;28;20082;-86
2023/01/04 13:21:28;;;;;;;5.10;3.63;;;;;;;;;;5077583;28;20121;-88
2023/01/04 13:23:56;;;;;;;4.43;3.25;;;;;;;;;;5077822;28;20024;-87
2023/01/04 13:26:30;;;;;;;4.15;2.80;;;;;;;;;;5112831;28;20432;-86
2023/01/04 13:29:04;;;;;;;3.55;2.50;;;;;;;;;;5091656;28;20096;-86
2023/01/04 13:31:30;;;;;;;6.10;2.75;;;;;;;;;;5095373;28;20024;-87
2023/01/04 13:34:01;;;;;;;3.58;2.42;;;;;;;;;;5079081;28;20116;-87
2023/01/04 13:36:31;;;;;;;4.88;3.42;;;;;;;;;;5114198;28;20486;-86
2023/01/04 13:38:57;;;;;;;5.35;3.60;;;;;;;;;;5099660;28;20069;-87
2023/01/04 13:41:23;;;;;;;4.32;3.45;;;;;;;;;;5103879;28;20032;-87
2023/01/04 13:44:01;;;;;;;7.85;3.90;;;;;;;;;;5082093;28;20036;-86
2023/01/04 13:46:27;;;;;;;3.88;2.95;;;;;;;;;;5118844;27;20026;-87
2023/01/04 13:49:01;;;;;;;9.35;4.28;;;;;;;;;;5103614;28;20032;-86
2023/01/04 13:51:35;;;;;;;4.78;3.22;;;;;;;;;;5086529;28;20033;-88
2023/01/04 13:54:29;;;;;;;3.50;2.50;;;;;;;;;;5090878;28;20074;-90
2023/01/04 13:57:14;;;;;;;4.72;2.72;;;;;;;;;;5044737;28;20047;-86
2023/01/04 13:59:40;;;;;;;6.68;3.28;;;;;;;;;;5081334;28;20388;-87
2023/01/04 14:02:19;;;;;;;3.90;2.22;;;;;;;;;;5083391;28;20034;-86
2023/01/04 14:04:46;;;;;;;9.83;3.43;;;;;;;;;;5081293;28;20024;-87
2023/01/04 14:07:20;;;;;;;5.70;3.35;;;;;;;;;;5082004;28;20039;-86
2023/01/04 14:09:50;;;;;;;6.30;3.63;;;;;;;;;;5101963;28;20019;-88
2023/01/04 14:13:03;;;;;;;;;;;;;;;;;;;;;
2023/01/04 14:16:03;;;;;;;3.95;2.50;;;;;;;;;;5099548;28;20372;-86
2023/01/04 14:18:30;;;;;;;5.90;3.33;;;;;;;;;;5083476;28;20019;-88
2023/01/04 14:20:56;;;;;;;5.20;2.88;;;;;;;;;;5102679;28;20043;-87
2023/01/04 14:23:37;;;;;;;9.30;4.22;;;;;;;;;;5106289;28;20073;-88
2023/01/04 14:26:03;;;;;;;7.80;3.58;;;;;;;;;;5104079;28;20441;-87
2023/01/04 14:28:35;;;;;;;5.38;3.30;;;;;;;;;;5087836;28;20040;-86
2023/01/04 14:31:05;;;;;;;6.18;4.25;;;;;;;;;;5084375;28;20054;-89
2023/01/04 14:33:39;;;;;;;5.72;2.78;;;;;;;;;;5080278;28;20024;-88
2023/01/04 14:36:05;;;;;;;5.47;3.70;;;;;;;;;;5080247;28;20524;-84
2023/01/04 14:38:35;;;;;;;8.00;4.03;;;;;;;;;;5107171;28;20023;-86
2023/01/04 14:41:14;;;;;;;6.82;4.70;;;;;;;;;;5120174;27;20023;-85
2023/01/04 14:43:46;;;;;;;6.10;3.42;;;;;;;;;;5095769;28;20050;-85
2023/01/04 14:46:11;;;;;;;6.38;3.78;;;;;;;;;;5081143;28;20052;-87
2023/01/04 14:48:37;;;;;;;6.78;3.90;;;;;;;;;;5083214;28;20070;-86
2023/01/04 14:51:04;;;;;;;6.43;3.97;;;;;;;;;;5092447;28;20368;-86
2023/01/04 14:53:29;;;;;;;7.72;4.55;;;;;;;;;;5081870;28;20027;-87
2023/01/04 14:55:55;;;;;;;7.50;3.58;;;;;;;;;;5075351;28;20093;-87
2023/01/04 14:58:21;;;;;;;6.53;4.80;;;;;;;;;;5104348;28;20084;-89
2023/01/04 15:00:47;;;;;;;7.03;4.78;;;;;;;;;;5079684;28;20024;-87
2023/01/04 15:03:12;;;;;;;9.07;4.53;;;;;;;;;;5096161;28;20020;-86
2023/01/04 15:05:39;;;;;;;8.60;4.93;;;;;;;;;;5087020;28;20032;-87
2023/01/04 15:08:04;;;;;;;8.60;3.92;;;;;;;;;;5099188;28;20073;-87
2023/01/04 15:10:30;;;;;;;6.80;4.85;;;;;;;;;;5115970;27;20012;-87
2023/01/04 15:13:03;;;;;;;8.18;4.05;;;;;;;;;;5098497;28;20119;-88
2023/01/04 15:15:29;;;;;;;6.85;4.10;;;;;;;;;;5120859;27;20398;-87
2023/01/04 15:17:54;;;;;;;6.28;4.30;;;;;;;;;;5087727;28;20482;-88
2023/01/04 15:20:20;;;;;;;4.35;2.97;;;;;;;;;;5094698;28;20035;-86
2023/01/04 15:22:45;;;;;;;6.70;4.05;;;;;;;;;;5079271;28;20033;-86
2023/01/04 15:25:11;;;;;;;7.22;3.80;;;;;;;;;;5104716;28;20088;-88
2023/01/04 15:27:36;;;;;;;18.08;7.57;;;;;;;;;;5080832;28;20131;-87
2023/01/04 15:30:02;;;;;;;12.10;6.53;;;;;;;;;;5105356;28;20054;-88
2023/01/04 15:32:30;;;;;;;13.98;5.60;;;;;;;;;;5105006;28;20034;-84
2023/01/04 15:34:55;;;;;;;5.32;4.03;;;;;;;;;;5077175;28;20073;-85
2023/01/04 15:37:22;;;;;;;6.88;4.78;;;;;;;;;;5098651;28;20028;-84
2023/01/04 15:39:47;;;;;;;10.02;4.28;;;;;;;;;;5083711;28;20035;-84
2023/01/04 15:44:56;;;;;;;4.47;3.22;;;;;;;;;;5104079;28;20107;-85
2023/01/04 15:47:22;;;;;;;4.07;3.22;;;;;;;;;;5095943;28;20103;-87
2023/01/04 15:49:47;;;;;;;9.43;5.88;;;;;;;;;;5086184;28;20078;-88
2023/01/04 15:52:14;;;;;;;7.43;4.75;;;;;;;;;;5121762;27;20383;-87